createdAt,value
2023-05-16T00:02:35.328Z,66.69
2023-05-16T00:05:22.551Z,66.67
2023-05-16T00:08:09.457Z,66.94
2023-05-16T00:10:56.553Z,66.24
2023-05-16T00:13:43.494Z,66.27
2023-05-16T00:16:30.554Z,66.40
2023-05-16T00:19:17.722Z,66.42
2023-05-16T00:22:04.938Z,66.86
2023-05-16T00:24:53.344Z,67.13
2023-05-16T00:27:40.323Z,66.71
2023-05-16T00:30:29.873Z,67.27
2023-05-16T00:33:17.052Z,67.86
2023-05-16T00:36:04.122Z,68.07
2023-05-16T00:38:51.114Z,67.08
2023-05-16T00:41:38.286Z,67.34
2023-05-16T00:44:25.958Z,68.11
2023-05-16T00:47:14.387Z,67.92
2023-05-16T00:50:01.801Z,68.32
2023-05-16T00:52:49.336Z,67.56
2023-05-16T00:55:36.608Z,67.48
2023-05-16T00:58:25.592Z,68.26
2023-05-16T01:01:13.063Z,68.42
2023-05-16T01:04:00.328Z,68.03
2023-05-16T01:06:47.773Z,67.94
2023-05-16T01:09:34.996Z,68.28
2023-05-16T01:12:49.185Z,67.99
2023-05-16T01:15:45.603Z,68.66
2023-05-16T01:18:32.647Z,68.99
2023-05-16T01:21:24.138Z,68.36
2023-05-16T01:24:43.158Z,68.26
2023-05-16T01:27:31.774Z,68.95
2023-05-16T01:30:18.831Z,69.04
2023-05-16T01:33:06.136Z,68.61
2023-05-16T01:35:56.720Z,68.84
2023-05-16T01:38:50.968Z,69.68
2023-05-16T01:41:56.506Z,68.83
2023-05-16T01:44:52.775Z,69.48
2023-05-16T01:47:43.639Z,69.37
2023-05-16T01:50:35.178Z,69.67
2023-05-16T01:53:34.789Z,68.85
2023-05-16T01:56:22.756Z,69.54
2023-05-16T01:59:12.016Z,68.93
2023-05-16T02:01:59.120Z,69.02
2023-05-16T02:04:46.344Z,69.03
2023-05-16T02:07:35.899Z,69.41
2023-05-16T02:10:23.095Z,69.92
2023-05-16T02:13:11.076Z,69.25
2023-05-16T02:15:58.205Z,69.33
2023-05-16T02:18:45.174Z,70.21
2023-05-16T02:21:32.368Z,70.43
2023-05-16T02:24:19.365Z,70.23
2023-05-16T02:27:06.390Z,70.44
2023-05-16T02:29:53.382Z,70.31
2023-05-16T02:32:40.478Z,70.44
2023-05-16T02:35:28.730Z,70.39
2023-05-16T02:38:16.783Z,70.54
2023-05-16T02:41:03.804Z,69.68
2023-05-16T02:43:50.847Z,70.45
2023-05-16T02:46:43.060Z,69.77
2023-05-16T02:49:30.339Z,69.59
2023-05-16T02:52:17.222Z,70.54
2023-05-16T02:55:21.159Z,69.79
2023-05-16T02:58:11.229Z,70.52
2023-05-16T03:00:58.341Z,69.91
2023-05-16T03:03:45.953Z,70.94
2023-05-16T03:06:33.727Z,70.94
2023-05-16T03:09:20.755Z,70.16
2023-05-16T03:12:07.867Z,70.66
2023-05-16T03:14:55.075Z,70.26
2023-05-16T03:17:42.189Z,70.48
2023-05-16T03:20:29.848Z,70.81
2023-05-16T03:23:16.783Z,70.74
2023-05-16T03:26:03.826Z,70.35
2023-05-16T03:28:50.854Z,70.98
2023-05-16T03:31:39.199Z,70.67
2023-05-16T03:34:26.213Z,70.49
2023-05-16T03:37:13.446Z,70.21
2023-05-16T03:40:00.467Z,70.97
2023-05-16T03:42:47.405Z,71.21
2023-05-16T03:45:34.481Z,70.27
2023-05-16T03:48:21.492Z,71.05
2023-05-16T03:51:09.110Z,70.36
2023-05-16T03:53:57.406Z,70.51
2023-05-16T03:56:44.389Z,71.34
2023-05-16T03:59:31.334Z,71.30
2023-05-16T04:02:19.117Z,71.30
2023-05-16T04:05:06.280Z,70.76
2023-05-16T04:07:53.420Z,71.13
2023-05-16T04:10:40.737Z,71.45
2023-05-16T04:13:27.817Z,70.66
2023-05-16T04:16:14.817Z,70.62
2023-05-16T04:19:02.007Z,70.96
2023-05-16T04:21:49.083Z,70.96
2023-05-16T04:24:36.027Z,71.02
2023-05-16T04:27:23.231Z,70.02
2023-05-16T04:30:10.229Z,70.97
2023-05-16T04:32:57.415Z,70.75
2023-05-16T04:35:44.506Z,69.74
2023-05-16T04:38:31.521Z,69.49
2023-05-16T04:41:18.603Z,69.84
2023-05-16T04:44:05.616Z,69.68
2023-05-16T04:46:52.750Z,70.50
2023-05-16T04:49:40.396Z,70.32
2023-05-16T04:52:31.159Z,69.77
2023-05-16T04:55:18.046Z,69.75
2023-05-16T04:58:05.017Z,69.46
2023-05-16T05:00:51.928Z,69.26
2023-05-16T05:03:38.863Z,69.25
2023-05-16T05:06:26.130Z,70.46
2023-05-16T05:09:14.250Z,69.40
2023-05-16T05:12:01.068Z,70.36
2023-05-16T05:14:47.943Z,70.30
2023-05-16T05:17:35.027Z,70.38
2023-05-16T05:20:22.216Z,69.41
2023-05-16T05:23:09.153Z,69.48
2023-05-16T05:25:57.166Z,70.34
2023-05-16T05:28:53.735Z,70.27
2023-05-16T05:31:44.765Z,69.86
2023-05-16T05:34:31.761Z,69.71
2023-05-16T05:37:18.983Z,69.27
2023-05-16T05:40:06.018Z,69.43
2023-05-16T05:42:53.146Z,68.93
2023-05-16T05:45:40.206Z,69.03
2023-05-16T05:48:27.595Z,69.22
2023-05-16T05:51:14.622Z,68.62
2023-05-16T05:54:02.091Z,68.87
2023-05-16T05:56:49.034Z,68.34
2023-05-16T05:59:36.246Z,68.18
2023-05-16T06:02:23.617Z,67.98
2023-05-16T06:05:10.907Z,68.06
2023-05-16T06:07:57.921Z,67.35
2023-05-16T06:10:45.281Z,67.45
2023-05-16T06:13:32.207Z,67.86
2023-05-16T06:16:19.401Z,67.97
2023-05-16T06:19:06.503Z,67.33
2023-05-16T06:21:53.784Z,66.50
2023-05-16T06:24:40.993Z,66.22
2023-05-16T06:27:29.025Z,65.84
2023-05-16T06:30:16.201Z,65.67
2023-05-16T06:33:03.158Z,65.29
2023-05-16T06:35:50.218Z,64.84
2023-05-16T06:38:39.084Z,65.01
2023-05-16T06:41:25.977Z,63.81
2023-05-16T06:44:12.966Z,63.47
2023-05-16T06:47:00.361Z,63.16
2023-05-16T06:49:47.434Z,62.75
2023-05-16T06:52:34.728Z,62.59
2023-05-16T06:55:21.913Z,61.58
2023-05-16T06:58:08.994Z,60.81
2023-05-16T07:00:56.120Z,60.44
2023-05-16T07:03:43.257Z,60.07
2023-05-16T07:06:30.275Z,59.69
2023-05-16T07:09:17.845Z,59.15
2023-05-16T07:12:05.196Z,59.19
2023-05-16T07:14:52.159Z,58.90
2023-05-16T07:17:39.263Z,58.83
2023-05-16T07:20:27.190Z,57.88
2023-05-16T07:23:14.359Z,57.50
2023-05-16T07:26:01.474Z,56.96
2023-05-16T07:28:48.633Z,56.37
2023-05-16T07:31:36.100Z,56.64
2023-05-16T07:34:23.341Z,56.19
2023-05-16T07:37:10.349Z,55.73
2023-05-16T07:39:57.437Z,56.17
2023-05-16T07:42:44.906Z,55.91
2023-05-16T07:45:32.021Z,55.39
2023-05-16T07:48:18.956Z,55.92
2023-05-16T07:51:06.063Z,55.31
2023-05-16T07:53:52.997Z,55.87
2023-05-16T07:56:40.187Z,55.82
2023-05-16T07:59:28.204Z,54.92
2023-05-16T08:02:15.443Z,55.38
2023-05-16T08:05:02.439Z,55.29
2023-05-16T08:07:49.636Z,54.56
2023-05-16T08:10:36.766Z,52.90
2023-05-16T08:13:23.985Z,52.75
2023-05-16T08:16:11.137Z,52.14
2023-05-16T08:18:58.265Z,50.89
2023-05-16T08:21:45.277Z,50.31
2023-05-16T08:24:32.402Z,50.14
2023-05-16T08:27:19.469Z,48.98
2023-05-16T08:30:06.479Z,48.95
2023-05-16T08:32:53.910Z,48.52
2023-05-16T08:35:40.902Z,48.19
2023-05-16T08:38:27.884Z,48.36
2023-05-16T08:41:15.058Z,47.34
2023-05-16T08:44:02.281Z,47.58
2023-05-16T08:46:49.657Z,47.12
2023-05-16T08:49:38.134Z,46.35
2023-05-16T08:52:28.790Z,46.08
2023-05-16T08:55:19.302Z,46.43
2023-05-16T08:58:09.430Z,46.21
2023-05-16T09:00:56.436Z,45.97
2023-05-16T09:03:43.688Z,45.14
2023-05-16T09:06:30.864Z,44.98
2023-05-16T09:09:17.943Z,44.79
2023-05-16T09:12:05.032Z,45.04
2023-05-16T09:14:52.317Z,44.49
2023-05-16T09:17:41.437Z,44.18
2023-05-16T09:20:33.281Z,43.79
2023-05-16T09:23:20.482Z,43.79
2023-05-16T09:26:07.679Z,43.22
2023-05-16T09:28:58.254Z,43.42
2023-05-16T09:31:49.428Z,43.23
2023-05-16T09:34:36.806Z,43.12
2023-05-16T09:37:23.752Z,42.93
2023-05-16T09:40:13.067Z,42.19
2023-05-16T09:43:00.014Z,42.22
2023-05-16T09:45:47.098Z,42.21
2023-05-16T09:48:35.059Z,42.25
2023-05-16T09:51:26.010Z,42.14
2023-05-16T09:54:13.120Z,42.17
2023-05-16T09:57:10.000Z,42.54
2023-05-16T09:59:58.671Z,42.13
2023-05-16T10:02:46.624Z,41.94
2023-05-16T10:05:33.806Z,42.14
2023-05-16T10:08:23.344Z,41.63
2023-05-16T10:11:19.158Z,41.81
2023-05-16T10:14:08.011Z,41.73
2023-05-16T10:16:55.932Z,41.55
2023-05-16T10:19:45.403Z,41.19
2023-05-16T10:22:33.684Z,41.13
2023-05-16T10:25:42.606Z,41.73
2023-05-16T10:28:29.935Z,41.71
2023-05-16T10:31:18.013Z,41.34
2023-05-16T10:34:05.034Z,41.61
2023-05-16T10:36:52.374Z,41.72
2023-05-16T10:39:39.739Z,42.03
2023-05-16T10:42:27.403Z,42.18
2023-05-16T10:45:15.229Z,42.07
2023-05-16T10:48:11.134Z,42.60
2023-05-16T10:51:04.288Z,42.55
2023-05-16T10:53:56.027Z,42.55
2023-05-16T10:56:45.302Z,42.58
2023-05-16T10:59:45.715Z,43.26
2023-05-16T11:02:45.985Z,43.18
2023-05-16T11:05:39.270Z,43.44
2023-05-16T11:08:26.674Z,43.60
2023-05-16T11:11:52.262Z,43.95
2023-05-16T11:14:45.140Z,43.98
2023-05-16T11:17:55.858Z,43.93
2023-05-16T11:20:56.632Z,44.11
2023-05-16T11:23:45.265Z,43.87
2023-05-16T11:26:33.333Z,43.85
2023-05-16T11:29:21.419Z,44.08
2023-05-16T11:32:08.411Z,44.38
2023-05-16T11:34:56.561Z,44.49
2023-05-16T11:37:44.061Z,44.32
2023-05-16T11:40:32.606Z,44.39
2023-05-16T11:43:21.066Z,44.25
2023-05-16T11:46:15.018Z,44.51
2023-05-16T11:49:02.379Z,44.04
2023-05-16T11:51:49.502Z,44.61
2023-05-16T11:54:38.250Z,44.55
2023-05-16T11:57:25.550Z,44.70
2023-05-16T12:00:13.702Z,44.23
2023-05-16T12:03:01.271Z,44.56
2023-05-16T12:05:48.624Z,44.74
2023-05-16T12:08:36.429Z,44.96
2023-05-16T12:11:23.658Z,45.41
2023-05-16T12:14:10.971Z,44.96
2023-05-16T12:16:59.366Z,44.92
2023-05-16T12:19:46.767Z,45.20
2023-05-16T12:22:37.706Z,44.98
2023-05-16T12:25:47.739Z,45.14
2023-05-16T12:28:36.067Z,44.92
2023-05-16T12:31:31.861Z,45.21
2023-05-16T12:34:19.848Z,45.19
2023-05-16T12:37:11.918Z,45.20
2023-05-16T12:39:59.285Z,44.88
2023-05-16T12:42:47.562Z,45.23
2023-05-16T12:45:35.728Z,45.54
2023-05-16T12:48:29.002Z,45.60
2023-05-16T12:51:16.047Z,45.62
2023-05-16T12:57:00.202Z,45.97
2023-05-16T12:59:47.198Z,46.46
2023-05-16T13:02:34.894Z,45.87
2023-05-16T13:05:24.664Z,46.37
2023-05-16T13:08:11.873Z,46.37
2023-05-16T13:10:58.868Z,46.90
2023-05-16T13:13:45.975Z,46.27
2023-05-16T13:16:33.168Z,47.28
2023-05-16T13:19:20.500Z,46.95
2023-05-16T13:22:07.488Z,47.19
2023-05-16T13:24:54.703Z,47.29
2023-05-16T13:27:41.715Z,47.50
2023-05-16T13:30:29.228Z,46.80
2023-05-16T13:33:16.294Z,47.37
2023-05-16T13:36:08.365Z,47.32
2023-05-16T13:38:56.596Z,47.37
2023-05-16T13:41:44.089Z,47.69
2023-05-16T13:44:31.474Z,47.57
2023-05-16T13:47:20.759Z,47.54
2023-05-16T13:50:07.885Z,47.24
2023-05-16T13:52:55.354Z,47.17
2023-05-16T13:55:42.495Z,47.55
2023-05-16T13:58:30.388Z,47.20
2023-05-16T14:00:57.628Z,47.44
2023-05-16T14:03:24.758Z,47.12
2023-05-16T14:05:52.046Z,47.45
2023-05-16T14:08:19.097Z,47.27
2023-05-16T14:10:46.237Z,47.61
2023-05-16T14:13:13.189Z,46.95
2023-05-16T14:15:40.598Z,47.62
2023-05-16T14:18:08.275Z,47.12
2023-05-16T14:20:35.918Z,47.22
2023-05-16T14:23:03.135Z,47.23
2023-05-16T14:25:30.392Z,47.42
2023-05-16T14:27:57.732Z,46.95
2023-05-16T14:30:25.051Z,47.45
2023-05-16T14:32:52.194Z,47.59
2023-05-16T14:35:39.202Z,47.58
2023-05-16T14:38:26.377Z,48.02
2023-05-16T14:41:13.449Z,47.70
2023-05-16T14:44:00.799Z,47.82
2023-05-16T14:46:48.135Z,47.61
2023-05-16T14:49:35.384Z,48.41
2023-05-16T14:52:22.324Z,48.56
2023-05-16T14:55:09.517Z,48.69
2023-05-16T14:57:59.569Z,49.99
2023-05-16T15:00:47.430Z,50.57
2023-05-16T15:03:53.671Z,51.11
2023-05-16T15:06:42.944Z,51.34
2023-05-16T15:09:29.973Z,52.56
2023-05-16T15:12:17.130Z,53.56
2023-05-16T15:15:04.097Z,53.99
2023-05-16T15:17:51.349Z,55.42
2023-05-16T15:20:38.603Z,55.71
2023-05-16T15:23:28.009Z,56.66
2023-05-16T15:26:15.156Z,58.13
2023-05-16T15:29:02.301Z,58.33
2023-05-16T15:31:49.273Z,59.39
2023-05-16T15:34:36.323Z,60.10
2023-05-16T15:37:23.366Z,60.83
2023-05-16T15:40:10.492Z,61.39
2023-05-16T15:42:57.496Z,61.13
2023-05-16T15:45:44.832Z,61.36
2023-05-16T15:48:32.037Z,61.77
2023-05-16T15:51:19.121Z,62.41
2023-05-16T15:54:07.389Z,62.25
2023-05-16T15:56:54.529Z,62.50
2023-05-16T15:59:41.445Z,62.85
2023-05-16T16:02:28.618Z,63.14
2023-05-16T16:05:15.777Z,63.16
2023-05-16T16:08:02.993Z,63.06
2023-05-16T16:10:49.956Z,63.73
2023-05-16T16:13:36.969Z,63.94
2023-05-16T16:16:23.966Z,63.95
2023-05-16T16:19:11.049Z,63.58
2023-05-16T16:21:58.062Z,64.17
2023-05-16T16:24:45.123Z,64.68
2023-05-16T16:27:32.050Z,64.55
2023-05-16T16:30:19.144Z,64.41
2023-05-16T16:33:06.419Z,64.76
2023-05-16T16:35:53.824Z,65.08
2023-05-16T16:38:41.176Z,65.31
2023-05-16T16:41:28.305Z,65.36
2023-05-16T16:44:15.334Z,65.27
2023-05-16T16:47:02.874Z,65.74
2023-05-16T16:49:50.144Z,66.05
2023-05-16T16:52:37.182Z,66.38
2023-05-16T16:55:24.819Z,66.19
2023-05-16T16:58:11.943Z,66.18
2023-05-16T17:00:58.898Z,66.71
2023-05-16T17:03:46.024Z,66.97
2023-05-16T17:06:33.293Z,66.89
2023-05-16T17:09:20.441Z,67.25
2023-05-16T17:12:07.491Z,67.41
2023-05-16T17:14:54.982Z,67.60
2023-05-16T17:17:42.818Z,68.26
2023-05-16T17:20:30.284Z,68.26
2023-05-16T17:23:17.383Z,68.49
2023-05-16T17:26:04.465Z,69.00
2023-05-16T17:28:51.529Z,69.30
2023-05-16T17:31:38.696Z,69.49
2023-05-16T17:34:25.648Z,69.87
2023-05-16T17:37:12.801Z,70.35
2023-05-16T17:39:59.742Z,70.43
2023-05-16T17:42:46.798Z,70.83
2023-05-16T17:45:34.441Z,71.20
2023-05-16T17:48:21.751Z,71.39
2023-05-16T17:51:08.852Z,71.17
2023-05-16T17:53:55.995Z,71.84
2023-05-16T17:56:43.031Z,72.02
2023-05-16T17:59:30.157Z,72.75
2023-05-16T18:02:20.197Z,72.52
2023-05-16T18:05:07.397Z,72.80
2023-05-16T18:07:54.354Z,72.87
2023-05-16T18:10:51.102Z,73.39
2023-05-16T18:13:39.795Z,73.30
2023-05-16T18:16:27.051Z,73.42
2023-05-16T18:19:14.324Z,73.60
2023-05-16T18:22:01.459Z,73.73
2023-05-16T18:24:48.378Z,74.33
2023-05-16T18:27:35.772Z,74.03
2023-05-16T18:30:23.687Z,74.28
2023-05-16T18:33:10.975Z,74.87
2023-05-16T18:35:57.885Z,75.03
2023-05-16T18:38:45.131Z,75.20
2023-05-16T18:41:32.335Z,75.19
2023-05-16T18:44:19.287Z,75.44
2023-05-16T18:47:06.925Z,75.57
2023-05-16T18:49:54.072Z,76.01
2023-05-16T18:52:41.142Z,75.66
2023-05-16T18:55:28.922Z,75.96
2023-05-16T18:58:16.072Z,76.24
2023-05-16T19:01:03.072Z,76.31
2023-05-16T19:03:50.455Z,76.42
2023-05-16T19:06:37.678Z,77.02
2023-05-16T19:09:28.312Z,76.47
2023-05-16T19:12:15.327Z,77.10
2023-05-16T19:15:02.333Z,77.26
2023-05-16T19:17:49.512Z,77.39
2023-05-16T19:20:36.754Z,77.54
2023-05-16T19:23:24.035Z,76.92
2023-05-16T19:26:10.945Z,77.90
2023-05-16T19:28:58.192Z,77.25
2023-05-16T19:31:45.157Z,77.47
2023-05-16T19:34:32.275Z,77.66
2023-05-16T19:37:19.499Z,77.22
2023-05-16T19:40:06.456Z,77.97
2023-05-16T19:42:53.481Z,77.54
2023-05-16T19:45:41.358Z,78.32
2023-05-16T19:48:28.925Z,78.57
2023-05-16T19:51:17.856Z,78.26
2023-05-16T19:54:08.484Z,77.76
2023-05-16T19:56:56.255Z,78.71
2023-05-16T19:59:43.443Z,78.79
2023-05-16T20:02:30.511Z,78.73
2023-05-16T20:05:18.216Z,78.80
2023-05-16T20:08:06.108Z,79.16
2023-05-16T20:10:53.121Z,79.03
2023-05-16T20:13:43.274Z,78.48
2023-05-16T20:16:30.370Z,79.54
2023-05-16T20:19:18.387Z,79.17
2023-05-16T20:22:05.984Z,79.77
2023-05-16T20:24:53.565Z,79.35
2023-05-16T20:27:40.610Z,79.17
2023-05-16T20:30:28.167Z,80.24
2023-05-16T20:33:15.193Z,79.43
2023-05-16T20:36:02.336Z,80.05
2023-05-16T20:38:49.395Z,80.57
2023-05-16T20:41:36.389Z,80.23
2023-05-16T20:44:23.369Z,80.34
2023-05-16T20:47:10.550Z,80.17
2023-05-16T20:49:57.425Z,80.37
2023-05-16T20:52:44.542Z,80.26
2023-05-16T20:55:31.561Z,80.57
2023-05-16T20:58:18.649Z,80.31
2023-05-16T21:01:05.572Z,81.03
2023-05-16T21:03:52.831Z,81.06
2023-05-16T21:06:39.877Z,81.51
2023-05-16T21:09:26.923Z,81.81
2023-05-16T21:12:13.859Z,81.64
2023-05-16T21:15:00.994Z,81.11
2023-05-16T21:17:48.179Z,81.39
2023-05-16T21:20:35.375Z,81.35
2023-05-16T21:23:22.296Z,82.21
2023-05-16T21:26:09.537Z,82.02
2023-05-16T21:28:56.605Z,82.17
2023-05-16T21:31:43.834Z,81.94
2023-05-16T21:34:30.942Z,82.69
2023-05-16T21:37:18.030Z,82.31
2023-05-16T21:40:04.955Z,81.81
2023-05-16T21:42:52.149Z,82.84
2023-05-16T21:45:39.257Z,81.76
2023-05-16T21:48:26.890Z,81.78
2023-05-16T21:51:13.931Z,82.95
2023-05-16T21:54:00.963Z,82.85
2023-05-16T21:56:48.079Z,82.70
2023-05-16T21:59:35.044Z,82.94
2023-05-16T22:02:22.006Z,82.86
2023-05-16T22:05:15.026Z,82.75
2023-05-16T22:08:02.505Z,82.55
2023-05-16T22:10:49.861Z,82.98
2023-05-16T22:13:36.981Z,83.49
2023-05-16T22:16:24.543Z,83.07
2023-05-16T22:19:11.617Z,83.42
2023-05-16T22:21:58.714Z,82.69
2023-05-16T22:24:45.725Z,82.45
2023-05-16T22:27:33.213Z,83.90
2023-05-16T22:30:20.285Z,83.73
2023-05-16T22:33:07.418Z,82.79
2023-05-16T22:35:54.552Z,83.15
2023-05-16T22:38:41.738Z,82.90
2023-05-16T22:41:28.701Z,83.19
2023-05-16T22:44:15.861Z,83.71
2023-05-16T22:47:03.040Z,82.95
2023-05-16T22:49:50.227Z,82.91
2023-05-16T22:52:37.205Z,83.02
2023-05-16T22:55:24.383Z,83.49
2023-05-16T22:58:11.532Z,83.41
2023-05-16T23:00:58.679Z,83.83
2023-05-16T23:03:45.870Z,84.18
2023-05-16T23:06:32.920Z,84.45
2023-05-16T23:09:23.273Z,83.47
2023-05-16T23:12:10.307Z,84.53
2023-05-16T23:14:57.582Z,84.74
2023-05-16T23:17:44.925Z,84.70
2023-05-16T23:20:32.137Z,84.53
2023-05-16T23:23:19.358Z,83.34
2023-05-16T23:26:06.549Z,84.20
2023-05-16T23:28:53.704Z,83.31
2023-05-16T23:31:40.735Z,83.76
2023-05-16T23:34:27.894Z,83.88
2023-05-16T23:37:14.844Z,83.42
2023-05-16T23:40:02.346Z,83.49
2023-05-16T23:42:49.440Z,84.69
2023-05-16T23:45:36.767Z,83.65
2023-05-16T23:48:24.698Z,83.98
2023-05-16T23:51:12.131Z,83.90
2023-05-16T23:53:59.377Z,83.64
2023-05-16T23:56:46.517Z,83.71
2023-05-16T23:59:33.870Z,84.65
